createdAt,value
2019-02-16T00:00:34.424Z,101048.61
2019-02-16T00:03:03.409Z,101048.75
2019-02-16T00:05:32.137Z,101041.34
2019-02-16T00:08:00.866Z,101045.31
2019-02-16T00:10:29.647Z,101042.20
2019-02-16T00:13:04.377Z,101037.83
2019-02-16T00:15:33.096Z,101036.89
2019-02-16T00:18:01.973Z,101031.20
2019-02-16T00:20:30.698Z,101030.63
2019-02-16T00:22:59.425Z,101032.72
2019-02-16T00:25:28.321Z,101028.70
2019-02-16T00:27:57.042Z,101033.31
2019-02-16T00:30:25.777Z,101037.17
2019-02-16T00:32:55.822Z,101036.70
2019-02-16T00:35:24.685Z,101039.20
2019-02-16T00:37:53.417Z,101037.83
2019-02-16T00:40:22.271Z,101037.17
2019-02-16T00:42:50.992Z,101042.34
2019-02-16T00:45:19.732Z,101034.89
2019-02-16T00:47:48.593Z,101041.58
2019-02-16T00:50:17.317Z,101042.98
2019-02-16T00:52:46.060Z,101044.22
2019-02-16T00:55:14.851Z,101046.58
2019-02-16T00:57:43.578Z,101040.15
2019-02-16T01:00:13.022Z,101039.18
2019-02-16T01:02:45.243Z,101047.96
2019-02-16T01:05:13.963Z,101052.44
2019-02-16T01:07:42.688Z,101045.95
2019-02-16T01:10:11.490Z,101044.66
2019-02-16T01:12:40.218Z,101050.36
2019-02-16T01:15:09.615Z,101049.86
2019-02-16T01:17:38.381Z,101044.47
2019-02-16T01:20:09.304Z,101040.01
2019-02-16T01:22:38.026Z,101041.03
2019-02-16T01:25:07.295Z,101045.05
2019-02-16T01:27:36.027Z,101043.67
2019-02-16T01:30:07.363Z,101040.99
2019-02-16T01:32:36.229Z,101039.78
2019-02-16T01:35:06.460Z,101040.28
2019-02-16T01:37:35.182Z,101040.67
2019-02-16T01:40:04.658Z,101045.81
2019-02-16T01:42:33.386Z,101041.33
2019-02-16T01:45:02.134Z,101037.53
2019-02-16T01:47:30.995Z,101042.70
2019-02-16T01:49:59.724Z,101038.50
2019-02-16T01:52:28.449Z,101032.39
2019-02-16T01:54:57.223Z,101031.45
2019-02-16T01:57:25.948Z,101031.12
2019-02-16T01:59:54.677Z,101027.64
2019-02-16T02:02:23.605Z,101029.27
2019-02-16T02:04:52.329Z,101027.42
2019-02-16T02:07:21.057Z,101025.31
2019-02-16T02:09:49.911Z,101026.13
2019-02-16T02:12:18.632Z,101032.10
2019-02-16T02:14:47.358Z,101024.50
2019-02-16T02:17:16.151Z,101027.52
2019-02-16T02:19:44.871Z,101024.18
2019-02-16T02:22:13.593Z,101022.39
2019-02-16T02:24:42.478Z,101027.64
2019-02-16T02:27:11.202Z,101031.30
2019-02-16T02:29:39.931Z,101031.08
2019-02-16T02:32:08.805Z,101032.07
2019-02-16T02:34:37.533Z,101029.06
2019-02-16T02:37:06.260Z,101035.97
2019-02-16T02:39:35.054Z,101035.18
2019-02-16T02:42:03.785Z,101034.47
2019-02-16T02:44:32.512Z,101036.63
2019-02-16T02:47:01.387Z,101033.59
2019-02-16T02:49:30.120Z,101041.56
2019-02-16T02:51:58.857Z,101039.81
2019-02-16T02:54:27.650Z,101039.34
2019-02-16T02:56:56.400Z,101026.81
2019-02-16T02:59:25.132Z,101030.67
2019-02-16T03:01:54.027Z,101028.62
2019-02-16T03:04:22.757Z,101029.41
2019-02-16T03:06:51.479Z,101029.86
2019-02-16T03:09:20.388Z,101037.36
2019-02-16T03:11:49.109Z,101029.70
2019-02-16T03:14:17.840Z,101033.03
2019-02-16T03:16:46.636Z,101033.11
2019-02-16T03:19:15.364Z,101038.65
2019-02-16T03:21:44.096Z,101033.13
2019-02-16T03:24:12.977Z,101038.86
2019-02-16T03:26:47.734Z,101041.05
2019-02-16T03:29:27.931Z,101044.59
2019-02-16T03:32:23.534Z,101045.39
2019-02-16T03:34:58.212Z,101045.20
2019-02-16T03:37:46.536Z,101047.36
2019-02-16T03:40:15.300Z,101053.41
2019-02-16T03:42:44.027Z,101051.42
2019-02-16T03:45:12.843Z,101049.52
2019-02-16T03:47:41.645Z,101052.06
2019-02-16T03:50:10.462Z,101044.23
2019-02-16T03:52:39.193Z,101047.75
2019-02-16T03:55:08.075Z,101047.23
2019-02-16T03:57:36.798Z,101047.33
2019-02-16T04:00:08.530Z,101046.84
2019-02-16T04:02:37.387Z,101047.69
2019-02-16T04:05:07.216Z,101043.66
2019-02-16T04:07:35.941Z,101041.52
2019-02-16T04:10:06.234Z,101040.59
2019-02-16T04:12:34.962Z,101048.24
2019-02-16T04:15:03.697Z,101051.16
2019-02-16T04:17:32.598Z,101050.59
2019-02-16T04:20:01.353Z,101045.66
2019-02-16T04:22:30.047Z,101047.86
2019-02-16T04:24:58.827Z,101051.81
2019-02-16T04:27:27.554Z,101055.86
2019-02-16T04:29:56.282Z,101065.19
2019-02-16T04:32:25.089Z,101058.11
2019-02-16T04:34:53.807Z,101054.81
2019-02-16T04:37:24.101Z,101050.63
2019-02-16T04:39:53.014Z,101053.66
2019-02-16T04:42:21.738Z,101057.81
2019-02-16T04:44:50.458Z,101061.31
2019-02-16T04:47:19.350Z,101060.77
2019-02-16T04:49:48.078Z,101061.58
2019-02-16T04:52:16.810Z,101068.63
2019-02-16T04:54:45.611Z,101060.48
2019-02-16T04:57:14.335Z,101058.69
2019-02-16T04:59:43.059Z,101058.45
2019-02-16T05:02:11.954Z,101060.96
2019-02-16T05:04:40.685Z,101056.52
2019-02-16T05:07:09.496Z,101056.27
2019-02-16T05:09:38.305Z,101064.80
2019-02-16T05:12:07.035Z,101070.89
2019-02-16T05:14:35.765Z,101074.77
2019-02-16T05:17:04.975Z,101075.30
2019-02-16T05:19:33.703Z,101081.00
2019-02-16T05:22:02.434Z,101085.34
2019-02-16T05:24:31.334Z,101084.27
2019-02-16T05:27:00.073Z,101085.11
2019-02-16T05:29:28.800Z,101083.55
2019-02-16T05:31:57.642Z,101098.02
2019-02-16T05:34:26.353Z,101093.07
2019-02-16T05:36:55.091Z,101090.47
2019-02-16T05:39:23.973Z,101090.70
2019-02-16T05:41:52.711Z,101102.34
2019-02-16T05:44:21.448Z,101099.28
2019-02-16T05:46:50.332Z,101099.41
2019-02-16T05:49:19.065Z,101103.91
2019-02-16T05:51:48.161Z,101110.32
2019-02-16T05:54:17.183Z,101108.95
2019-02-16T05:56:45.906Z,101113.41
2019-02-16T05:59:14.637Z,101113.68
2019-02-16T06:01:53.219Z,101119.09
2019-02-16T06:04:13.966Z,101122.36
2019-02-16T06:06:42.694Z,101123.55
2019-02-16T06:09:11.517Z,101123.94
2019-02-16T06:11:40.242Z,101128.50
2019-02-16T06:14:08.974Z,101123.75
2019-02-16T06:16:37.777Z,101126.34
2019-02-16T06:19:06.507Z,101125.94
2019-02-16T06:21:35.246Z,101128.20
2019-02-16T06:24:04.144Z,101127.83
2019-02-16T06:26:32.866Z,101138.23
2019-02-16T06:29:01.593Z,101144.38
2019-02-16T06:31:30.467Z,101137.45
2019-02-16T06:33:59.195Z,101145.37
2019-02-16T06:36:29.484Z,101151.84
2019-02-16T06:38:58.310Z,101155.02
2019-02-16T06:41:27.044Z,101159.87
2019-02-16T06:43:55.770Z,101164.53
2019-02-16T06:46:24.660Z,101163.73
2019-02-16T06:48:53.390Z,101168.38
2019-02-16T06:51:22.118Z,101169.04
2019-02-16T06:53:50.990Z,101171.55
2019-02-16T06:56:21.281Z,101173.56
2019-02-16T06:58:50.007Z,101167.75
2019-02-16T07:01:19.309Z,101170.88
2019-02-16T07:03:48.031Z,101173.95
2019-02-16T07:06:16.770Z,101170.50
2019-02-16T07:08:45.540Z,101176.98
2019-02-16T07:11:14.358Z,101183.16
2019-02-16T07:13:43.089Z,101188.19
2019-02-16T07:16:13.463Z,101195.70
2019-02-16T07:18:49.735Z,101198.47
2019-02-16T07:21:18.468Z,101204.35
2019-02-16T07:23:47.281Z,101208.81
2019-02-16T07:26:16.007Z,101209.78
2019-02-16T07:28:44.728Z,101199.80
2019-02-16T07:31:15.728Z,101200.91
2019-02-16T07:33:43.960Z,101196.63
2019-02-16T07:36:14.204Z,101200.00
2019-02-16T07:38:42.949Z,101193.61
2019-02-16T07:41:11.677Z,101193.86
2019-02-16T07:43:51.091Z,101195.41
2019-02-16T07:46:36.294Z,101192.23
2019-02-16T07:49:18.888Z,101191.70
2019-02-16T07:52:04.424Z,101188.16
2019-02-16T07:54:47.320Z,101186.63
2019-02-16T07:57:20.762Z,101184.16
2019-02-16T07:59:51.339Z,101179.45
2019-02-16T08:02:21.643Z,101175.68
2019-02-16T08:04:51.950Z,101179.19
2019-02-16T08:07:28.183Z,101175.80
2019-02-16T08:09:58.480Z,101184.27
2019-02-16T08:12:44.247Z,101173.95
2019-02-16T08:15:31.188Z,101176.59
2019-02-16T08:18:10.867Z,101172.86
2019-02-16T08:20:41.170Z,101173.59
2019-02-16T08:23:11.490Z,101174.83
2019-02-16T08:25:53.954Z,101177.75
2019-02-16T08:28:27.211Z,101181.19
2019-02-16T08:31:00.236Z,101173.09
2019-02-16T08:33:30.539Z,101168.20
2019-02-16T08:36:00.836Z,101163.50
2019-02-16T08:38:34.260Z,101167.53
2019-02-16T08:41:07.380Z,101162.75
2019-02-16T08:43:40.743Z,101152.41
2019-02-16T08:46:20.253Z,101148.67
2019-02-16T08:48:53.738Z,101142.95
2019-02-16T08:51:36.096Z,101140.25
2019-02-16T08:54:22.944Z,101132.31
2019-02-16T08:56:53.242Z,101133.11
2019-02-16T08:59:23.545Z,101134.12
2019-02-16T09:02:02.774Z,101135.06
2019-02-16T09:04:48.118Z,101136.87
2019-02-16T09:07:21.463Z,101132.09
2019-02-16T09:09:54.494Z,101136.83
2019-02-16T09:12:24.800Z,101135.07
2019-02-16T09:15:04.105Z,101138.19
2019-02-16T09:17:34.401Z,101136.00
2019-02-16T09:20:21.690Z,101133.04
2019-02-16T09:22:58.034Z,101133.99
2019-02-16T09:25:37.649Z,101135.06
2019-02-16T09:28:10.846Z,101121.59
2019-02-16T09:30:41.265Z,101129.27
2019-02-16T09:33:17.436Z,101126.16
2019-02-16T09:35:56.566Z,101131.16
2019-02-16T09:38:42.095Z,101123.12
2019-02-16T09:41:21.662Z,101115.47
2019-02-16T09:44:03.909Z,101109.13
2019-02-16T09:46:40.594Z,101106.47
2019-02-16T09:49:10.894Z,101108.37
2019-02-16T09:51:44.145Z,101105.23
2019-02-16T09:54:20.616Z,101099.11
2019-02-16T09:57:07.084Z,101094.77
2019-02-16T09:59:37.418Z,101089.78
2019-02-16T10:02:10.435Z,101089.67
2019-02-16T10:04:44.648Z,101082.48
2019-02-16T10:07:30.568Z,101080.59
2019-02-16T10:10:07.317Z,101073.58
2019-02-16T10:12:37.621Z,101069.62
2019-02-16T10:15:19.339Z,101067.53
2019-02-16T10:17:52.647Z,101065.70
2019-02-16T10:20:28.989Z,101069.38
2019-02-16T10:23:01.991Z,101071.70
2019-02-16T10:25:32.294Z,101064.39
2019-02-16T10:28:05.617Z,101065.14
2019-02-16T10:30:44.927Z,101063.63
2019-02-16T10:33:18.636Z,101056.70
2019-02-16T10:35:51.685Z,101053.36
2019-02-16T10:38:31.259Z,101048.67
2019-02-16T10:41:01.678Z,101043.17
2019-02-16T10:43:44.188Z,101041.02
2019-02-16T10:46:23.454Z,101037.09
2019-02-16T10:48:53.825Z,101032.36
2019-02-16T10:51:40.426Z,101033.69
2019-02-16T10:54:10.896Z,101031.84
2019-02-16T10:56:44.122Z,101032.56
2019-02-16T10:59:14.418Z,101018.73
2019-02-16T11:01:44.873Z,101024.80
2019-02-16T11:04:15.205Z,101016.93
2019-02-16T11:06:48.470Z,101019.55
2019-02-16T11:09:19.253Z,101009.87
2019-02-16T11:11:54.994Z,101009.97
2019-02-16T11:14:24.973Z,101014.02
2019-02-16T11:16:55.258Z,101010.42
2019-02-16T11:19:41.992Z,101001.42
2019-02-16T11:22:21.476Z,101002.95
2019-02-16T11:24:51.948Z,101005.32
2019-02-16T11:27:25.216Z,101005.66
2019-02-16T11:29:55.524Z,100996.96
2019-02-16T11:32:31.714Z,101004.81
2019-02-16T11:35:05.035Z,100997.68
2019-02-16T11:37:35.324Z,100996.41
2019-02-16T11:40:06.470Z,100994.27
2019-02-16T11:42:36.799Z,100992.69
2019-02-16T11:45:09.401Z,100993.30
2019-02-16T11:47:45.928Z,100989.43
2019-02-16T11:50:16.220Z,100994.60
2019-02-16T11:52:49.289Z,100986.95
2019-02-16T11:55:36.182Z,100980.81
2019-02-16T11:58:09.554Z,100978.53
2019-02-16T12:00:55.003Z,100982.23
2019-02-16T12:03:25.297Z,100975.17
2019-02-16T12:06:01.936Z,100969.88
2019-02-16T12:08:35.226Z,100964.05
2019-02-16T12:11:11.766Z,100963.36
2019-02-16T12:13:42.055Z,100961.29
2019-02-16T12:16:15.313Z,100959.21
2019-02-16T12:18:49.925Z,100957.56
2019-02-16T12:21:36.792Z,100952.45
2019-02-16T12:24:16.153Z,100951.67
2019-02-16T12:26:46.458Z,100949.73
2019-02-16T12:29:16.751Z,100944.65
2019-02-16T12:32:04.070Z,100936.70
2019-02-16T12:34:34.352Z,100936.47
2019-02-16T12:37:13.914Z,100934.05
2019-02-16T12:39:44.221Z,100935.89
2019-02-16T12:42:30.511Z,100929.08
2019-02-16T12:45:03.755Z,100927.98
2019-02-16T12:47:36.963Z,100929.07
2019-02-16T12:50:08.075Z,100927.68
2019-02-16T12:52:38.371Z,100923.03
2019-02-16T12:55:14.610Z,100921.56
2019-02-16T12:57:47.595Z,100917.75
2019-02-16T13:00:17.933Z,100919.90
2019-02-16T13:03:00.194Z,100912.66
2019-02-16T13:05:45.939Z,100911.48
2019-02-16T13:08:18.976Z,100916.38
2019-02-16T13:11:05.956Z,100914.02
2019-02-16T13:13:48.287Z,100909.28
2019-02-16T13:16:21.643Z,100899.68
2019-02-16T13:18:51.969Z,100906.16
2019-02-16T13:21:22.283Z,100901.56
2019-02-16T13:24:01.610Z,100899.59
2019-02-16T13:26:34.617Z,100901.26
2019-02-16T13:29:07.986Z,100900.66
2019-02-16T13:31:44.424Z,100896.05
2019-02-16T13:34:17.901Z,100896.90
2019-02-16T13:37:04.926Z,100893.48
2019-02-16T13:39:44.461Z,100890.87
2019-02-16T13:42:27.063Z,100893.30
2019-02-16T13:44:57.712Z,100890.67
2019-02-16T13:47:28.022Z,100894.79
2019-02-16T13:49:58.323Z,100891.23
2019-02-16T13:52:29.230Z,100883.77
2019-02-16T13:54:59.557Z,100885.63
2019-02-16T13:57:32.814Z,100887.53
2019-02-16T14:00:04.356Z,100888.13
2019-02-16T14:02:37.401Z,100890.83
2019-02-16T14:05:11.119Z,100889.67
2019-02-16T14:07:56.677Z,100894.07
2019-02-16T14:10:37.195Z,100890.39
2019-02-16T14:13:13.483Z,100884.41
2019-02-16T14:15:49.913Z,100881.95
2019-02-16T14:18:18.645Z,100887.11
2019-02-16T14:20:47.423Z,100884.97
2019-02-16T14:23:16.300Z,100884.25
2019-02-16T14:25:45.896Z,100884.80
2019-02-16T14:28:14.787Z,100882.02
2019-02-16T14:30:43.664Z,100868.44
2019-02-16T14:33:12.395Z,100871.87
2019-02-16T14:35:41.129Z,100871.70
2019-02-16T14:38:21.102Z,100866.55
2019-02-16T14:40:49.830Z,100868.19
2019-02-16T14:43:18.603Z,100870.57
2019-02-16T14:45:47.335Z,100868.48
2019-02-16T14:48:16.067Z,100868.59
2019-02-16T14:50:44.792Z,100866.02
2019-02-16T14:53:13.944Z,100872.73
2019-02-16T14:55:51.615Z,100865.33
2019-02-16T14:58:13.132Z,100863.20
2019-02-16T15:00:42.031Z,100869.12
2019-02-16T15:03:10.771Z,100862.84
2019-02-16T15:05:39.496Z,100864.05
2019-02-16T15:08:08.395Z,100863.66
2019-02-16T15:10:37.124Z,100857.38
2019-02-16T15:13:05.852Z,100854.05
2019-02-16T15:15:34.640Z,100855.26
2019-02-16T15:18:03.882Z,100853.53
2019-02-16T15:20:32.671Z,100856.73
2019-02-16T15:23:01.626Z,100851.98
2019-02-16T15:25:30.361Z,100852.29
2019-02-16T15:27:59.099Z,100856.45
2019-02-16T15:30:28.212Z,100859.82
2019-02-16T15:32:56.955Z,100854.30
2019-02-16T15:35:27.530Z,100847.99
2019-02-16T15:37:56.494Z,100845.85
2019-02-16T15:40:25.218Z,100851.22
2019-02-16T15:42:53.940Z,100849.80
2019-02-16T15:45:22.695Z,100851.44
2019-02-16T15:47:51.423Z,100850.27
2019-02-16T15:50:20.149Z,100848.94
2019-02-16T15:52:49.108Z,100845.28
2019-02-16T15:55:17.870Z,100845.66
2019-02-16T15:57:46.601Z,100843.10
2019-02-16T16:00:20.000Z,100841.55
2019-02-16T16:02:48.744Z,100848.73
2019-02-16T16:05:17.463Z,100851.93
2019-02-16T16:07:48.186Z,100848.83
2019-02-16T16:10:18.474Z,100852.23
2019-02-16T16:12:50.130Z,100847.01
2019-02-16T16:15:23.229Z,100846.64
2019-02-16T16:17:59.559Z,100854.65
2019-02-16T16:20:47.196Z,100849.78
2019-02-16T16:23:33.691Z,100851.97
2019-02-16T16:26:04.019Z,100853.11
2019-02-16T16:28:34.924Z,100847.32
2019-02-16T16:31:21.209Z,100856.34
2019-02-16T16:34:00.481Z,100859.20
2019-02-16T16:36:40.489Z,100867.09
2019-02-16T16:39:10.758Z,100863.34
2019-02-16T16:41:44.009Z,100867.96
2019-02-16T16:44:14.697Z,100866.45
2019-02-16T16:46:45.027Z,100860.49
2019-02-16T16:49:46.187Z,100867.84
2019-02-16T16:52:41.936Z,100877.70
2019-02-16T16:55:12.315Z,100874.80
2019-02-16T16:57:42.622Z,100876.86
2019-02-16T17:00:25.418Z,100876.48
2019-02-16T17:03:11.840Z,100880.25
2019-02-16T17:05:45.359Z,100884.31
2019-02-16T17:08:32.069Z,100891.30
2019-02-16T17:11:02.433Z,100892.04
2019-02-16T17:13:35.469Z,100891.86
2019-02-16T17:16:05.780Z,100894.87
2019-02-16T17:18:52.700Z,100900.14
2019-02-16T17:21:35.008Z,100893.03
2019-02-16T17:24:05.415Z,100900.48
2019-02-16T17:26:38.036Z,100901.48
2019-02-16T17:29:17.753Z,100901.77
2019-02-16T17:32:04.259Z,100901.28
2019-02-16T17:34:46.768Z,100902.48
2019-02-16T17:37:20.069Z,100901.27
2019-02-16T17:39:50.372Z,100912.66
2019-02-16T17:42:25.286Z,100917.65
2019-02-16T17:45:01.747Z,100916.29
2019-02-16T17:47:47.777Z,100921.22
2019-02-16T17:50:26.666Z,100922.78
2019-02-16T17:53:02.978Z,100921.71
2019-02-16T17:55:42.421Z,100925.09
2019-02-16T17:58:12.830Z,100926.23
2019-02-16T18:00:43.139Z,100928.03
2019-02-16T18:03:13.447Z,100927.59
2019-02-16T18:05:55.742Z,100922.81
2019-02-16T18:08:26.037Z,100927.55
2019-02-16T18:11:08.781Z,100924.98
2019-02-16T18:13:39.084Z,100930.94
2019-02-16T18:16:15.267Z,100936.28
2019-02-16T18:18:45.718Z,100934.75
2019-02-16T18:21:19.241Z,100939.66
2019-02-16T18:23:49.534Z,100940.64
2019-02-16T18:26:19.884Z,100937.12
2019-02-16T18:28:57.557Z,100938.64
2019-02-16T18:31:28.058Z,100938.56
2019-02-16T18:34:15.614Z,100940.94
2019-02-16T18:36:52.250Z,100942.25
2019-02-16T18:39:39.227Z,100947.93
2019-02-16T18:42:25.749Z,100949.45
2019-02-16T18:45:02.797Z,100949.38
2019-02-16T18:47:42.441Z,100955.06
2019-02-16T18:50:16.218Z,100950.66
2019-02-16T18:52:46.573Z,100946.45
2019-02-16T18:55:16.878Z,100947.74
2019-02-16T18:57:50.574Z,100950.91
2019-02-16T19:00:20.887Z,100951.48
2019-02-16T19:02:54.449Z,100953.00
2019-02-16T19:05:41.309Z,100953.69
2019-02-16T19:08:21.382Z,100955.63
2019-02-16T19:11:14.220Z,100963.24
2019-02-16T19:13:47.068Z,100962.32
2019-02-16T19:16:37.761Z,100965.47
2019-02-16T19:19:11.066Z,100967.33
2019-02-16T19:21:48.883Z,100969.39
2019-02-16T19:24:31.244Z,100969.68
2019-02-16T19:27:01.664Z,100977.58
2019-02-16T19:29:48.073Z,100974.47
2019-02-16T19:32:29.299Z,100971.37
2019-02-16T19:35:02.494Z,100974.86
2019-02-16T19:37:35.937Z,100979.45
2019-02-16T19:40:12.856Z,100975.39
2019-02-16T19:42:49.842Z,100980.40
2019-02-16T19:45:23.264Z,100982.95
2019-02-16T19:47:53.983Z,100982.28
2019-02-16T19:50:26.099Z,100982.70
2019-02-16T19:52:56.501Z,100991.17
2019-02-16T19:55:30.333Z,100989.91
2019-02-16T19:58:06.643Z,100984.88
2019-02-16T20:00:53.946Z,100986.28
2019-02-16T20:03:29.853Z,100990.98
2019-02-16T20:06:04.518Z,100988.37
2019-02-16T20:08:43.348Z,100986.50
2019-02-16T20:11:20.000Z,100987.17
2019-02-16T20:13:53.282Z,100988.62
2019-02-16T20:16:41.969Z,100986.61
2019-02-16T20:19:12.269Z,100984.27
2019-02-16T20:21:42.604Z,100993.08
2019-02-16T20:24:28.156Z,100987.77
2019-02-16T20:27:14.809Z,100981.27
2019-02-16T20:29:45.150Z,100989.19
2019-02-16T20:32:31.568Z,100980.19
2019-02-16T20:35:04.946Z,100982.56
2019-02-16T20:37:39.497Z,100985.66
2019-02-16T20:40:15.723Z,100978.53
2019-02-16T20:42:49.722Z,100983.09
2019-02-16T20:45:20.029Z,100977.43
2019-02-16T20:47:50.494Z,100977.06
2019-02-16T20:50:20.803Z,100977.28
2019-02-16T20:53:03.499Z,100976.11
2019-02-16T20:55:39.961Z,100973.13
2019-02-16T20:58:13.242Z,100976.33
2019-02-16T21:00:43.539Z,100970.98
2019-02-16T21:03:19.907Z,100980.29
2019-02-16T21:06:06.395Z,100979.33
2019-02-16T21:08:40.047Z,100971.77
2019-02-16T21:11:16.528Z,100974.17
2019-02-16T21:13:47.068Z,100970.11
2019-02-16T21:16:33.718Z,100967.50
2019-02-16T21:19:04.500Z,100966.68
2019-02-16T21:21:53.211Z,100969.10
2019-02-16T21:24:23.671Z,100960.59
2019-02-16T21:26:57.038Z,100969.73
2019-02-16T21:29:42.524Z,100963.70
2019-02-16T21:32:12.834Z,100967.89
2019-02-16T21:34:59.598Z,100966.05
2019-02-16T21:37:36.310Z,100967.73
2019-02-16T21:40:07.452Z,100975.47
2019-02-16T21:42:37.747Z,100972.80
2019-02-16T21:45:10.967Z,100971.90
2019-02-16T21:47:50.624Z,100970.30
2019-02-16T21:50:23.938Z,100969.27
2019-02-16T21:53:09.757Z,100971.45
2019-02-16T21:55:56.268Z,100977.06
2019-02-16T21:58:29.558Z,100970.73
2019-02-16T22:01:02.707Z,100966.05
2019-02-16T22:03:33.006Z,100966.52
2019-02-16T22:06:19.551Z,100967.20
2019-02-16T22:08:52.634Z,100956.06
2019-02-16T22:11:22.939Z,100963.49
2019-02-16T22:13:51.835Z,100963.46
2019-02-16T22:16:20.562Z,100965.12
2019-02-16T22:18:49.291Z,100971.01
2019-02-16T22:21:24.426Z,100964.95
2019-02-16T22:23:53.162Z,100959.72
2019-02-16T22:26:21.900Z,100960.64
2019-02-16T22:28:50.799Z,100959.52
2019-02-16T22:31:19.528Z,100959.66
2019-02-16T22:33:48.260Z,100952.73
2019-02-16T22:36:17.060Z,100951.23
2019-02-16T22:38:45.853Z,100954.23
2019-02-16T22:41:14.785Z,100953.03
2019-02-16T22:43:43.643Z,100952.60
2019-02-16T22:46:13.389Z,100951.20
2019-02-16T22:48:42.150Z,100957.50
2019-02-16T22:51:10.940Z,100955.23
2019-02-16T22:53:39.667Z,100961.95
2019-02-16T22:56:08.406Z,100962.06
2019-02-16T22:58:37.201Z,100956.21
2019-02-16T23:01:06.228Z,100954.09
2019-02-16T23:03:34.958Z,100954.30
2019-02-16T23:06:03.754Z,100953.38
2019-02-16T23:08:32.486Z,100957.01
2019-02-16T23:11:01.217Z,100953.11
2019-02-16T23:13:30.520Z,100951.56
2019-02-16T23:15:59.253Z,100951.09
2019-02-16T23:18:27.978Z,100947.23
2019-02-16T23:20:56.754Z,100946.13
2019-02-16T23:23:25.483Z,100941.66
2019-02-16T23:25:54.214Z,100946.23
2019-02-16T23:28:23.211Z,100941.89
2019-02-16T23:30:51.946Z,100937.41
2019-02-16T23:33:20.691Z,100939.20
2019-02-16T23:35:49.546Z,100936.20
2019-02-16T23:38:18.280Z,100932.00
2019-02-16T23:40:47.159Z,100935.09
2019-02-16T23:43:16.286Z,100930.31
2019-02-16T23:45:45.017Z,100930.92
2019-02-16T23:48:13.744Z,100928.92
2019-02-16T23:50:42.623Z,100923.78
2019-02-16T23:53:11.353Z,100924.83
2019-02-16T23:55:40.078Z,100923.22
2019-02-16T23:58:08.964Z,100916.75
